Time;durP1;ratioP1;P1;durP2;ratioP2;P2;SDS_P1;SDS_P2;PMS_P1;PMS_P2;Temp;Humidity;BMP_temperature;BMP_pressure;BME280_temperature;BME280_humidity;BME280_pressure;Samples;Min_cycle;Max_cycle;Signal;HPM_P1;HPM_P2
2024/01/24 00:01:38;;;;;;;47.25;25.10;;;;;;;;;;10256602;28;20077;-60
2024/01/24 00:06:38;;;;;;;54.97;29.58;;;;;;;;;;10255400;28;20069;-60
2024/01/24 00:11:37;;;;;;;47.88;26.73;;;;;;;;;;10254353;28;20532;-60
2024/01/24 00:16:35;;;;;;;49.25;27.60;;;;;;;;;;10255012;28;20111;-60
2024/01/24 00:21:33;;;;;;;38.28;23.50;;;;;;;;;;10256248;28;20080;-60
2024/01/24 00:26:33;;;;;;;38.33;20.83;;;;;;;;;;10254911;28;20076;-61
2024/01/24 00:31:32;;;;;;;38.92;22.73;;;;;;;;;;10254612;28;20148;-60
2024/01/24 00:36:30;;;;;;;39.30;22.88;;;;;;;;;;10255284;28;20083;-60
2024/01/24 00:41:28;;;;;;;42.45;24.80;;;;;;;;;;10255509;28;20163;-60
2024/01/24 00:46:28;;;;;;;46.08;27.55;;;;;;;;;;10255831;28;20075;-60
2024/01/24 00:51:26;;;;;;;45.15;22.45;;;;;;;;;;10256135;28;20079;-60
2024/01/24 00:56:24;;;;;;;40.83;22.70;;;;;;;;;;10253919;28;20114;-60
2024/01/24 01:01:23;;;;;;;39.40;19.90;;;;;;;;;;10253882;28;20495;-60
2024/01/24 01:06:23;;;;;;;35.20;21.33;;;;;;;;;;10255013;28;20471;-60
2024/01/24 01:11:21;;;;;;;40.15;23.50;;;;;;;;;;10253972;28;20069;-60
2024/01/24 01:16:19;;;;;;;33.03;19.40;;;;;;;;;;10254044;28;20089;-61
2024/01/24 01:21:18;;;;;;;35.78;20.90;;;;;;;;;;10252316;28;20076;-60
2024/01/24 01:26:17;;;;;;;41.58;24.20;;;;;;;;;;10252569;28;20073;-60
2024/01/24 01:31:15;;;;;;;42.45;23.17;;;;;;;;;;10252255;28;20081;-60
2024/01/24 01:36:14;;;;;;;39.47;22.70;;;;;;;;;;10253753;28;20084;-60
2024/01/24 01:41:22;;;;;;;31.77;19.73;;;;;;;;;;10253014;28;20072;-60
2024/01/24 01:46:21;;;;;;;32.70;18.55;;;;;;;;;;10255137;28;20080;-60
2024/01/24 01:51:20;;;;;;;31.65;18.95;;;;;;;;;;10253186;28;20094;-60
2024/01/24 01:56:18;;;;;;;35.78;20.38;;;;;;;;;;10248491;28;20076;-60
2024/01/24 02:01:18;;;;;;;36.88;21.45;;;;;;;;;;10248076;28;20080;-61
2024/01/24 02:06:19;;;;;;;39.90;21.45;;;;;;;;;;10247590;28;20088;-61
2024/01/24 02:11:18;;;;;;;39.42;20.75;;;;;;;;;;10249329;28;20103;-60
2024/01/24 02:16:18;;;;;;;44.45;25.10;;;;;;;;;;10249449;28;20096;-61
2024/01/24 02:21:18;;;;;;;34.38;18.65;;;;;;;;;;10248729;28;20064;-60
2024/01/24 02:26:18;;;;;;;33.65;19.13;;;;;;;;;;10252259;28;20495;-60
2024/01/24 02:31:16;;;;;;;28.60;19.13;;;;;;;;;;10250317;28;20065;-61
2024/01/24 02:36:15;;;;;;;31.65;18.65;;;;;;;;;;10250877;28;20065;-61
2024/01/24 02:41:14;;;;;;;29.08;17.45;;;;;;;;;;10249456;28;20077;-60
2024/01/24 02:46:14;;;;;;;30.13;17.30;;;;;;;;;;10252105;28;20069;-60
2024/01/24 02:51:12;;;;;;;46.95;24.40;;;;;;;;;;10250487;28;20370;-60
2024/01/24 02:56:10;;;;;;;33.92;18.90;;;;;;;;;;10258058;28;20072;-60
2024/01/24 03:01:08;;;;;;;36.88;21.25;;;;;;;;;;10251245;28;20076;-60
2024/01/24 03:06:08;;;;;;;39.00;22.17;;;;;;;;;;10250031;28;20068;-61
2024/01/24 03:11:06;;;;;;;32.05;18.77;;;;;;;;;;10249366;28;20077;-61
2024/01/24 03:16:05;;;;;;;35.33;22.77;;;;;;;;;;10250106;28;20076;-60
2024/01/24 03:21:03;;;;;;;38.13;24.77;;;;;;;;;;10247651;28;20072;-60
2024/01/24 03:26:03;;;;;;;45.75;30.17;;;;;;;;;;10250135;28;20435;-60
2024/01/24 03:31:01;;;;;;;32.92;21.20;;;;;;;;;;10248244;28;20071;-60
2024/01/24 03:36:00;;;;;;;33.85;22.80;;;;;;;;;;10258487;28;20497;-60
2024/01/24 03:40:58;;;;;;;40.67;23.77;;;;;;;;;;10258614;28;20073;-60
2024/01/24 03:45:58;;;;;;;41.63;26.77;;;;;;;;;;10257674;28;20087;-60
2024/01/24 03:50:56;;;;;;;32.92;22.23;;;;;;;;;;10257714;28;20069;-60
2024/01/24 03:55:55;;;;;;;42.85;28.17;;;;;;;;;;10256589;28;20073;-60
2024/01/24 04:00:55;;;;;;;35.55;20.88;;;;;;;;;;10258408;28;20575;-61
2024/01/24 04:05:55;;;;;;;31.67;19.35;;;;;;;;;;10257504;28;20065;-61
2024/01/24 04:10:54;;;;;;;38.35;21.70;;;;;;;;;;10255536;28;20075;-61
2024/01/24 04:15:52;;;;;;;33.13;20.85;;;;;;;;;;10256788;28;20478;-61
2024/01/24 04:20:50;;;;;;;37.80;24.67;;;;;;;;;;10255598;28;20272;-61
2024/01/24 04:25:50;;;;;;;33.30;20.23;;;;;;;;;;10254602;28;20455;-62
2024/01/24 04:30:48;;;;;;;36.33;23.15;;;;;;;;;;10252885;28;20067;-61
2024/01/24 04:35:46;;;;;;;36.15;20.80;;;;;;;;;;10255330;28;20080;-62
2024/01/24 04:40:45;;;;;;;36.50;23.35;;;;;;;;;;10255941;28;20073;-61
2024/01/24 04:45:44;;;;;;;44.50;27.33;;;;;;;;;;10253782;28;20068;-60
2024/01/24 04:50:43;;;;;;;37.58;23.80;;;;;;;;;;10257791;28;20065;-60
2024/01/24 04:55:41;;;;;;;41.30;24.63;;;;;;;;;;10256407;28;20585;-62
2024/01/24 05:00:39;;;;;;;44.80;30.80;;;;;;;;;;10253934;28;20080;-62
2024/01/24 05:05:39;;;;;;;37.95;25.52;;;;;;;;;;10254339;28;20072;-61
2024/01/24 05:10:38;;;;;;;33.22;20.70;;;;;;;;;;10253418;28;20068;-61
2024/01/24 05:15:37;;;;;;;34.88;23.40;;;;;;;;;;10259765;28;20678;-61
2024/01/24 05:20:35;;;;;;;34.95;20.05;;;;;;;;;;10253362;28;20510;-61
2024/01/24 05:25:35;;;;;;;33.92;21.70;;;;;;;;;;10252872;28;20068;-61
2024/01/24 05:30:33;;;;;;;32.97;20.88;;;;;;;;;;10255466;28;20068;-61
2024/01/24 05:35:34;;;;;;;43.13;25.27;;;;;;;;;;10252164;28;20069;-61
2024/01/24 05:40:32;;;;;;;44.13;25.13;;;;;;;;;;10250634;28;20099;-59
2024/01/24 05:45:31;;;;;;;31.98;20.20;;;;;;;;;;10253599;28;20475;-60
2024/01/24 05:50:30;;;;;;;32.03;20.00;;;;;;;;;;10251917;28;20073;-61
2024/01/24 05:55:28;;;;;;;34.45;20.75;;;;;;;;;;10248009;28;20069;-60
2024/01/24 06:00:26;;;;;;;34.65;20.70;;;;;;;;;;10248673;28;20068;-60
2024/01/24 06:05:26;;;;;;;34.75;21.20;;;;;;;;;;10265400;28;20068;-59
2024/01/24 06:10:25;;;;;;;51.53;29.48;;;;;;;;;;10269697;28;20060;-60
2024/01/24 06:15:23;;;;;;;40.70;21.23;;;;;;;;;;10266636;28;20079;-60
2024/01/24 06:20:21;;;;;;;46.03;25.75;;;;;;;;;;10253976;28;20514;-61
2024/01/24 06:25:21;;;;;;;39.13;25.20;;;;;;;;;;10250441;28;20076;-61
2024/01/24 06:30:19;;;;;;;55.42;27.70;;;;;;;;;;10256034;28;20544;-61
2024/01/24 06:35:21;;;;;;;77.45;55.42;;;;;;;;;;10251032;28;20065;-61
2024/01/24 06:40:21;;;;;;;49.28;30.23;;;;;;;;;;10248388;28;20068;-61
2024/01/24 06:45:19;;;;;;;43.70;26.33;;;;;;;;;;10253487;28;20068;-60
2024/01/24 06:50:18;;;;;;;42.92;27.45;;;;;;;;;;10247336;28;20495;-60
2024/01/24 06:55:17;;;;;;;44.47;29.52;;;;;;;;;;10251935;28;20080;-61
2024/01/24 07:00:18;;;;;;;40.30;25.83;;;;;;;;;;10251189;28;20505;-61
2024/01/24 07:05:17;;;;;;;52.78;28.13;;;;;;;;;;10253454;28;20439;-60
2024/01/24 07:10:15;;;;;;;57.50;38.55;;;;;;;;;;10258670;28;20077;-61
2024/01/24 07:15:14;;;;;;;49.33;28.40;;;;;;;;;;10259820;28;20076;-61
2024/01/24 07:20:15;;;;;;;91.03;26.40;;;;;;;;;;10262146;28;20084;-62
2024/01/24 07:25:14;;;;;;;38.97;23.80;;;;;;;;;;10256560;28;20488;-61
2024/01/24 07:30:13;;;;;;;63.92;29.70;;;;;;;;;;10258351;28;20057;-61
2024/01/24 07:35:12;;;;;;;48.70;28.90;;;;;;;;;;10258927;28;20081;-60
2024/01/24 07:40:14;;;;;;;66.70;37.20;;;;;;;;;;10262273;28;20516;-61
2024/01/24 07:45:12;;;;;;;56.80;33.22;;;;;;;;;;10258192;28;20068;-60
2024/01/24 07:50:11;;;;;;;60.13;33.47;;;;;;;;;;10256027;28;20483;-61
2024/01/24 07:55:10;;;;;;;54.35;33.33;;;;;;;;;;10261440;28;20072;-61
2024/01/24 08:00:16;;;;;;;58.65;37.17;;;;;;;;;;10258017;28;20069;-61
2024/01/24 08:05:16;;;;;;;51.25;32.70;;;;;;;;;;10258121;28;20124;-60
2024/01/24 08:10:15;;;;;;;61.47;32.35;;;;;;;;;;10258753;28;20073;-61
2024/01/24 08:15:15;;;;;;;71.32;33.33;;;;;;;;;;10259197;28;20581;-62
2024/01/24 08:20:17;;;;;;;55.95;35.15;;;;;;;;;;10253345;28;20080;-62
2024/01/24 08:25:16;;;;;;;68.85;40.60;;;;;;;;;;10261016;28;20124;-61
2024/01/24 08:30:16;;;;;;;64.90;42.95;;;;;;;;;;10258727;28;20087;-61
2024/01/24 08:35:14;;;;;;;67.47;39.63;;;;;;;;;;10257840;28;20079;-62
2024/01/24 08:40:13;;;;;;;61.05;37.17;;;;;;;;;;10255726;28;20147;-62
2024/01/24 08:45:13;;;;;;;65.25;39.72;;;;;;;;;;10254905;28;20080;-61
2024/01/24 08:50:13;;;;;;;59.22;38.85;;;;;;;;;;10257033;28;20079;-61
2024/01/24 08:55:13;;;;;;;84.13;57.72;;;;;;;;;;10254750;28;20065;-61
2024/01/24 09:00:12;;;;;;;78.40;52.35;;;;;;;;;;10259385;28;20465;-61
2024/01/24 09:05:11;;;;;;;40.80;26.02;;;;;;;;;;10256084;28;20076;-61
2024/01/24 09:10:11;;;;;;;31.65;21.80;;;;;;;;;;10255930;28;20073;-62
2024/01/24 09:15:09;;;;;;;39.28;23.33;;;;;;;;;;10255632;28;20069;-62
2024/01/24 09:20:09;;;;;;;32.67;22.42;;;;;;;;;;10251865;28;20600;-61
2024/01/24 09:25:08;;;;;;;37.38;20.88;;;;;;;;;;10261158;28;20072;-60
2024/01/24 09:30:11;;;;;;;56.08;33.35;;;;;;;;;;10251965;28;20084;-61
2024/01/24 09:35:10;;;;;;;47.88;28.00;;;;;;;;;;10254985;28;20556;-61
2024/01/24 09:40:09;;;;;;;37.70;23.35;;;;;;;;;;10261088;28;20123;-61
2024/01/24 09:45:09;;;;;;;45.83;26.60;;;;;;;;;;10253556;28;20071;-60
2024/01/24 09:50:09;;;;;;;141.40;84.40;;;;;;;;;;10254072;28;20088;-62
2024/01/24 09:55:11;;;;;;;58.40;33.45;;;;;;;;;;10255326;28;20078;-62
2024/01/24 10:00:10;;;;;;;61.95;37.92;;;;;;;;;;10254085;28;20087;-62
2024/01/24 10:05:11;;;;;;;55.47;29.30;;;;;;;;;;10258839;28;20073;-62
2024/01/24 10:10:12;;;;;;;47.65;32.58;;;;;;;;;;10253946;28;20076;-61
2024/01/24 10:15:11;;;;;;;54.13;34.20;;;;;;;;;;10260080;28;20072;-60
2024/01/24 10:20:12;;;;;;;39.78;22.88;;;;;;;;;;10251401;28;20064;-61
2024/01/24 10:25:10;;;;;;;42.45;21.55;;;;;;;;;;10246922;28;20092;-61
2024/01/24 10:30:10;;;;;;;58.75;26.45;;;;;;;;;;10254501;28;20463;-61
2024/01/24 10:35:11;;;;;;;56.78;30.23;;;;;;;;;;10252725;28;20073;-62
2024/01/24 10:40:14;;;;;;;104.78;60.70;;;;;;;;;;10251147;28;20087;-60
2024/01/24 10:45:15;;;;;;;89.45;45.45;;;;;;;;;;10250287;28;20073;-61
2024/01/24 10:50:15;;;;;;;59.13;30.02;;;;;;;;;;10253205;28;20065;-62
2024/01/24 10:55:14;;;;;;;111.80;50.80;;;;;;;;;;10253038;28;20083;-61
2024/01/24 11:00:15;;;;;;;289.02;126.72;;;;;;;;;;10250997;28;20098;-61
2024/01/24 11:05:18;;;;;;;72.68;38.80;;;;;;;;;;10251561;28;20084;-62
2024/01/24 11:10:21;;;;;;;130.18;69.53;;;;;;;;;;10253064;28;20087;-62
2024/01/24 11:15:21;;;;;;;87.15;50.00;;;;;;;;;;10249958;28;20493;-63
2024/01/24 11:20:26;;;;;;;155.65;75.57;;;;;;;;;;10244132;28;20510;-61
2024/01/24 11:25:38;;;;;;;47.67;28.70;;;;;;;;;;10252323;28;20068;-62
2024/01/24 11:30:39;;;;;;;89.20;49.50;;;;;;;;;;10248423;28;20326;-61
2024/01/24 11:35:42;;;;;;;57.95;30.40;;;;;;;;;;10253319;28;20081;-61
2024/01/24 11:40:40;;;;;;;98.30;52.88;;;;;;;;;;10249863;28;20080;-61
2024/01/24 11:45:40;;;;;;;467.10;199.68;;;;;;;;;;10249928;28;20064;-61
2024/01/24 11:50:40;;;;;;;96.05;45.50;;;;;;;;;;10250507;28;20530;-62
2024/01/24 11:55:38;;;;;;;58.97;34.28;;;;;;;;;;10257574;28;20088;-61
2024/01/24 12:00:36;;;;;;;49.03;28.75;;;;;;;;;;10257447;28;20473;-61
2024/01/24 12:05:37;;;;;;;49.78;29.17;;;;;;;;;;10254815;28;20087;-61
2024/01/24 12:10:41;;;;;;;55.60;32.85;;;;;;;;;;10258388;28;20085;-61
2024/01/24 12:15:39;;;;;;;72.00;41.00;;;;;;;;;;10257569;28;20483;-61
2024/01/24 12:20:38;;;;;;;46.95;28.17;;;;;;;;;;10256656;28;20088;-61
2024/01/24 12:25:37;;;;;;;55.78;32.78;;;;;;;;;;10259050;28;20159;-61
2024/01/24 12:30:38;;;;;;;64.63;34.70;;;;;;;;;;10256785;28;20069;-61
2024/01/24 12:35:36;;;;;;;75.40;38.80;;;;;;;;;;10256198;28;20084;-61
2024/01/24 12:40:37;;;;;;;100.75;54.42;;;;;;;;;;10256549;28;20496;-62
2024/01/24 12:45:38;;;;;;;65.57;35.03;;;;;;;;;;10252206;28;20629;-61
2024/01/24 12:50:38;;;;;;;58.70;37.15;;;;;;;;;;10262131;28;20075;-61
2024/01/24 12:55:40;;;;;;;75.35;39.45;;;;;;;;;;10251845;28;20517;-61
2024/01/24 13:00:43;;;;;;;61.42;33.92;;;;;;;;;;10259764;28;20079;-60
2024/01/24 13:05:41;;;;;;;60.70;33.45;;;;;;;;;;10258226;28;20060;-61
2024/01/24 13:10:47;;;;;;;93.47;37.28;;;;;;;;;;10258386;28;20070;-62
2024/01/24 13:15:52;;;;;;;72.47;37.80;;;;;;;;;;10258862;28;20069;-61
2024/01/24 13:20:50;;;;;;;83.28;44.60;;;;;;;;;;10261862;28;20075;-61
2024/01/24 13:25:48;;;;;;;62.25;35.13;;;;;;;;;;10258985;28;20064;-61
2024/01/24 13:30:49;;;;;;;70.32;36.05;;;;;;;;;;10258545;28;20087;-61
2024/01/24 13:35:47;;;;;;;77.97;37.78;;;;;;;;;;10254846;28;20469;-61
2024/01/24 13:40:46;;;;;;;112.47;61.78;;;;;;;;;;10258670;28;20080;-62
2024/01/24 13:45:46;;;;;;;102.32;55.00;;;;;;;;;;10258814;28;20071;-61
2024/01/24 13:50:46;;;;;;;118.32;41.13;;;;;;;;;;10256979;28;20072;-60
2024/01/24 13:55:44;;;;;;;98.97;41.17;;;;;;;;;;10258232;28;20540;-60
2024/01/24 14:00:42;;;;;;;112.20;39.72;;;;;;;;;;10256629;28;20079;-60
2024/01/24 14:05:41;;;;;;;134.32;36.22;;;;;;;;;;10254322;28;20073;-61
2024/01/24 14:10:41;;;;;;;130.82;37.83;;;;;;;;;;10255950;28;20509;-61
2024/01/24 14:15:40;;;;;;;207.05;41.30;;;;;;;;;;10254628;28;20077;-61
2024/01/24 14:20:38;;;;;;;243.13;52.95;;;;;;;;;;10251789;28;20080;-61
2024/01/24 14:25:37;;;;;;;127.90;59.60;;;;;;;;;;10254576;28;20522;-61
2024/01/24 14:30:37;;;;;;;209.23;47.97;;;;;;;;;;10255273;28;20485;-61
2024/01/24 14:35:35;;;;;;;147.73;65.22;;;;;;;;;;10243816;28;20397;-60
2024/01/24 14:40:33;;;;;;;169.23;53.92;;;;;;;;;;10249147;28;20069;-60
2024/01/24 14:45:32;;;;;;;120.70;57.35;;;;;;;;;;10249203;28;20069;-60
2024/01/24 14:50:32;;;;;;;179.77;58.22;;;;;;;;;;10245505;28;20083;-60
2024/01/24 14:55:30;;;;;;;151.85;65.75;;;;;;;;;;10248869;28;20081;-61
2024/01/24 15:00:29;;;;;;;141.38;53.25;;;;;;;;;;10246698;28;20084;-61
2024/01/24 15:05:27;;;;;;;135.90;64.30;;;;;;;;;;10259472;28;20465;-61
2024/01/24 15:10:27;;;;;;;198.32;54.10;;;;;;;;;;10250613;28;20069;-61
2024/01/24 15:15:26;;;;;;;150.45;55.97;;;;;;;;;;10254178;28;20077;-61
2024/01/24 15:20:25;;;;;;;115.82;47.45;;;;;;;;;;10257632;28;20084;-61
2024/01/24 15:25:23;;;;;;;101.18;46.42;;;;;;;;;;10251615;28;20472;-60
2024/01/24 15:30:23;;;;;;;130.95;40.35;;;;;;;;;;10259505;28;20057;-62
2024/01/24 15:35:22;;;;;;;125.20;34.90;;;;;;;;;;10254783;28;20084;-62
2024/01/24 15:40:21;;;;;;;111.20;40.17;;;;;;;;;;10258590;28;20100;-61
2024/01/24 15:45:24;;;;;;;120.07;54.28;;;;;;;;;;10253950;28;20084;-62
2024/01/24 15:50:24;;;;;;;124.00;47.13;;;;;;;;;;10253498;28;20510;-62
2024/01/24 15:55:23;;;;;;;146.60;53.08;;;;;;;;;;10253425;28;20071;-62
2024/01/24 16:00:21;;;;;;;200.65;72.15;;;;;;;;;;10254953;28;20077;-62
2024/01/24 16:05:24;;;;;;;254.13;155.88;;;;;;;;;;10257561;28;20080;-61
2024/01/24 16:10:24;;;;;;;168.90;76.25;;;;;;;;;;10256605;28;20072;-61
2024/01/24 16:15:22;;;;;;;76.38;44.33;;;;;;;;;;10255889;28;20095;-62
2024/01/24 16:20:20;;;;;;;101.18;49.60;;;;;;;;;;10252861;28;20072;-62
2024/01/24 16:25:19;;;;;;;86.35;43.47;;;;;;;;;;10256609;28;20085;-61
2024/01/24 16:30:19;;;;;;;136.27;40.97;;;;;;;;;;10256014;28;20061;-62
2024/01/24 16:35:17;;;;;;;74.65;35.95;;;;;;;;;;10255902;28;20076;-61
2024/01/24 16:40:16;;;;;;;104.32;43.40;;;;;;;;;;10254607;28;20084;-62
2024/01/24 16:45:14;;;;;;;160.10;50.88;;;;;;;;;;10254843;28;20087;-61
2024/01/24 16:50:14;;;;;;;184.20;60.38;;;;;;;;;;10255492;28;20072;-63
2024/01/24 16:55:13;;;;;;;168.48;63.33;;;;;;;;;;10258225;28;20123;-61
2024/01/24 17:00:13;;;;;;;125.45;56.35;;;;;;;;;;10256259;28;20081;-63
2024/01/24 17:05:11;;;;;;;114.85;55.15;;;;;;;;;;10256003;28;20077;-62
2024/01/24 17:10:11;;;;;;;214.35;56.20;;;;;;;;;;10255379;28;20073;-64
2024/01/24 17:15:12;;;;;;;239.20;75.10;;;;;;;;;;10254413;28;20044;-62
2024/01/24 17:20:11;;;;;;;229.63;53.92;;;;;;;;;;10249104;28;20049;-61
2024/01/24 17:25:13;;;;;;;166.32;43.67;;;;;;;;;;10255162;28;20076;-61
2024/01/24 17:30:12;;;;;;;113.82;41.67;;;;;;;;;;10249304;28;20081;-62
2024/01/24 17:35:10;;;;;;;75.28;29.88;;;;;;;;;;10253814;28;20077;-61
2024/01/24 17:40:08;;;;;;;101.97;40.45;;;;;;;;;;10252639;28;20077;-63
2024/01/24 17:45:09;;;;;;;196.93;37.85;;;;;;;;;;10248532;28;20080;-62
2024/01/24 17:50:08;;;;;;;80.90;40.10;;;;;;;;;;10255223;28;20607;-62
2024/01/24 17:55:07;;;;;;;140.95;53.58;;;;;;;;;;10255101;28;20073;-62
2024/01/24 18:00:06;;;;;;;71.75;36.75;;;;;;;;;;10254644;28;20071;-62
2024/01/24 18:05:06;;;;;;;69.93;36.15;;;;;;;;;;10252833;28;20081;-62
2024/01/24 18:10:05;;;;;;;81.20;49.08;;;;;;;;;;10252542;28;20073;-62
2024/01/24 18:15:04;;;;;;;61.25;34.75;;;;;;;;;;10252496;28;20084;-61
2024/01/24 18:20:02;;;;;;;65.00;39.08;;;;;;;;;;10254341;28;20045;-60
2024/01/24 18:25:03;;;;;;;87.10;45.53;;;;;;;;;;10253210;28;20111;-61
2024/01/24 18:30:01;;;;;;;64.63;40.42;;;;;;;;;;10253262;28;20065;-61
2024/01/24 18:35:00;;;;;;;62.80;39.40;;;;;;;;;;10249807;28;20068;-60
2024/01/24 18:39:58;;;;;;;43.45;30.40;;;;;;;;;;10259758;28;20068;-62
2024/01/24 18:44:58;;;;;;;45.17;31.02;;;;;;;;;;10264277;28;20129;-61
2024/01/24 18:49:58;;;;;;;37.58;28.58;;;;;;;;;;10248568;28;20518;-62
2024/01/24 18:54:56;;;;;;;37.33;25.55;;;;;;;;;;10258493;28;20061;-62
2024/01/24 18:59:54;;;;;;;39.88;29.52;;;;;;;;;;10249801;28;20065;-64
2024/01/24 19:04:57;;;;;;;35.75;26.40;;;;;;;;;;10257411;28;20071;-62
2024/01/24 19:09:55;;;;;;;33.88;26.02;;;;;;;;;;10261056;28;20061;-62
2024/01/24 19:14:53;;;;;;;36.00;26.63;;;;;;;;;;10259438;28;20075;-63
2024/01/24 19:19:52;;;;;;;34.33;24.55;;;;;;;;;;10258937;28;20076;-61
2024/01/24 19:24:52;;;;;;;45.67;31.38;;;;;;;;;;10265381;28;20501;-62
2024/01/24 19:29:50;;;;;;;36.55;25.95;;;;;;;;;;10258596;28;20554;-62
2024/01/24 19:34:52;;;;;;;43.45;32.67;;;;;;;;;;10260037;28;20087;-63
2024/01/24 19:39:52;;;;;;;65.45;42.95;;;;;;;;;;10261583;28;20076;-63
2024/01/24 19:44:50;;;;;;;38.38;27.30;;;;;;;;;;10264028;28;20068;-64
2024/01/24 19:49:50;;;;;;;35.55;25.95;;;;;;;;;;10260283;28;20057;-63
2024/01/24 19:54:49;;;;;;;40.03;28.83;;;;;;;;;;10258625;28;20069;-63
2024/01/24 19:59:49;;;;;;;42.13;30.00;;;;;;;;;;10259637;28;20591;-63
2024/01/24 20:04:47;;;;;;;30.65;21.35;;;;;;;;;;10262992;28;20072;-64
2024/01/24 20:09:45;;;;;;;25.23;20.15;;;;;;;;;;10259503;28;20096;-62
2024/01/24 20:14:44;;;;;;;35.38;21.95;;;;;;;;;;10258075;28;20438;-63
2024/01/24 20:19:44;;;;;;;42.95;29.98;;;;;;;;;;10259553;28;20505;-65
2024/01/24 20:24:43;;;;;;;31.73;23.05;;;;;;;;;;10257279;28;20087;-63
2024/01/24 20:29:41;;;;;;;24.50;18.80;;;;;;;;;;10259018;28;20072;-62
2024/01/24 20:34:42;;;;;;;49.72;30.80;;;;;;;;;;10260528;28;20080;-62
2024/01/24 20:39:41;;;;;;;40.15;28.70;;;;;;;;;;10260776;28;20688;-63
2024/01/24 20:44:40;;;;;;;46.17;31.98;;;;;;;;;;10262477;28;20077;-62
2024/01/24 20:49:38;;;;;;;23.63;18.42;;;;;;;;;;10256500;28;20068;-62
2024/01/24 20:54:37;;;;;;;48.58;30.50;;;;;;;;;;10256441;28;20076;-62
2024/01/24 20:59:37;;;;;;;27.92;20.50;;;;;;;;;;10258880;28;20084;-62
2024/01/24 21:04:36;;;;;;;33.17;24.80;;;;;;;;;;10254969;28;20084;-63
2024/01/24 21:09:34;;;;;;;29.73;21.42;;;;;;;;;;10258287;28;20064;-63
2024/01/24 21:14:32;;;;;;;34.75;23.42;;;;;;;;;;10259524;28;20076;-63
2024/01/24 21:19:32;;;;;;;35.53;24.77;;;;;;;;;;10256733;28;20088;-63
2024/01/24 21:24:31;;;;;;;46.35;29.42;;;;;;;;;;10256742;28;20073;-63
2024/01/24 21:29:29;;;;;;;101.25;57.65;;;;;;;;;;10256041;28;20068;-61
2024/01/24 21:34:28;;;;;;;58.33;40.00;;;;;;;;;;10260579;28;20069;-62
2024/01/24 21:39:28;;;;;;;92.63;51.10;;;;;;;;;;10253973;28;20071;-63
2024/01/24 21:44:27;;;;;;;57.20;41.00;;;;;;;;;;10249523;28;20072;-63
2024/01/24 21:49:25;;;;;;;30.10;22.33;;;;;;;;;;10248383;28;20076;-62
2024/01/24 21:54:23;;;;;;;28.65;20.42;;;;;;;;;;10246555;28;20072;-62
2024/01/24 21:59:23;;;;;;;39.00;25.13;;;;;;;;;;10254568;28;20080;-63
2024/01/24 22:04:21;;;;;;;47.33;30.10;;;;;;;;;;10252860;28;20552;-64
2024/01/24 22:09:19;;;;;;;24.80;19.35;;;;;;;;;;10253413;28;20089;-63
2024/01/24 22:14:18;;;;;;;25.30;18.48;;;;;;;;;;10252415;28;20065;-63
2024/01/24 22:19:17;;;;;;;30.05;20.95;;;;;;;;;;10252080;28;20110;-62
2024/01/24 22:24:15;;;;;;;70.22;37.55;;;;;;;;;;10249699;28;20073;-62
2024/01/24 22:29:14;;;;;;;22.58;17.20;;;;;;;;;;10251030;28;20084;-63
2024/01/24 22:34:12;;;;;;;33.80;22.02;;;;;;;;;;10250132;28;20081;-63
2024/01/24 22:39:12;;;;;;;40.88;26.48;;;;;;;;;;10252122;28;20761;-63
2024/01/24 22:44:10;;;;;;;75.75;40.60;;;;;;;;;;10251166;28;20077;-63
2024/01/24 22:49:08;;;;;;;65.00;38.40;;;;;;;;;;10248526;28;20091;-63
2024/01/24 22:54:07;;;;;;;21.80;15.50;;;;;;;;;;10247158;28;20069;-64
2024/01/24 22:59:07;;;;;;;15.65;11.90;;;;;;;;;;10248178;28;20069;-64
2024/01/24 23:04:05;;;;;;;25.10;16.30;;;;;;;;;;10250266;28;20542;-63
2024/01/24 23:09:04;;;;;;;37.65;26.80;;;;;;;;;;10249913;28;20069;-63
2024/01/24 23:14:02;;;;;;;71.55;36.70;;;;;;;;;;10252016;28;20210;-64
2024/01/24 23:19:02;;;;;;;44.78;27.85;;;;;;;;;;10253311;28;20506;-62
2024/01/24 23:24:00;;;;;;;48.30;28.50;;;;;;;;;;10251639;28;20073;-63
2024/01/24 23:28:59;;;;;;;47.25;32.03;;;;;;;;;;10250293;28;20068;-63
2024/01/24 23:33:57;;;;;;;92.88;61.65;;;;;;;;;;10251202;28;20129;-63
2024/01/24 23:38:58;;;;;;;15.05;11.75;;;;;;;;;;10250694;28;20061;-63
2024/01/24 23:43:56;;;;;;;26.00;19.70;;;;;;;;;;10247905;28;20076;-63
2024/01/24 23:48:54;;;;;;;31.50;23.75;;;;;;;;;;10252663;28;20075;-63
2024/01/24 23:53:53;;;;;;;23.38;18.50;;;;;;;;;;10257301;28;20068;-63
2024/01/24 23:58:52;;;;;;;23.85;18.67;;;;;;;;;;10256296;28;20080;-63
